Time;durP1;ratioP1;P1;durP2;ratioP2;P2;SDS_P1;SDS_P2;PMS_P1;PMS_P2;Temp;Humidity;BMP_temperature;BMP_pressure;BME280_temperature;BME280_humidity;BME280_pressure;Samples;Min_cycle;Max_cycle;Signal;HPM_P1;HPM_P2
2021/11/08 00:01:59;;;;;;;;;;;15.30;73.90;;;;;;4263076;27;20042;-66
2021/11/08 00:04:01;;;;;;;;;;;15.30;73.90;;;;;;4254932;27;19919;-65
2021/11/08 00:06:05;;;;;;;;;;;15.30;73.90;;;;;;4265821;27;19919;-66
2021/11/08 00:08:11;;;;;;;;;;;15.30;73.80;;;;;;4254508;27;19965;-66
2021/11/08 00:10:15;;;;;;;;;;;15.30;73.90;;;;;;4263160;27;19919;-66
2021/11/08 00:12:20;;;;;;;;;;;15.30;73.80;;;;;;4244274;27;20444;-66
2021/11/08 00:14:23;;;;;;;;;;;15.30;73.90;;;;;;4235693;27;19924;-65
2021/11/08 00:20:49;;;;;;;;;;;15.30;73.70;;;;;;4248236;27;20295;-66
2021/11/08 00:22:52;;;;;;;;;;;15.30;73.80;;;;;;4251768;27;19940;-66
2021/11/08 00:24:55;;;;;;;;;;;15.30;73.80;;;;;;4256837;27;20347;-66
2021/11/08 00:26:59;;;;;;;;;;;15.30;73.90;;;;;;4247703;27;20371;-66
2021/11/08 00:29:02;;;;;;;;;;;15.20;73.80;;;;;;4259880;27;19926;-66
2021/11/08 00:31:04;;;;;;;;;;;15.30;73.80;;;;;;4247720;27;19927;-65
2021/11/08 00:33:08;;;;;;;;;;;15.30;73.60;;;;;;4252037;27;19922;-66
2021/11/08 00:35:12;;;;;;;;;;;15.20;73.70;;;;;;4255189;27;19930;-65
2021/11/08 00:37:15;;;;;;;;;;;15.30;73.80;;;;;;4238890;27;19927;-65
2021/11/08 00:39:18;;;;;;;;;;;15.30;73.70;;;;;;4258767;27;19979;-65
2021/11/08 00:41:21;;;;;;;;;;;15.20;73.70;;;;;;4248146;27;19970;-65
2021/11/08 00:43:23;;;;;;;;;;;15.20;73.70;;;;;;4249324;27;19919;-66
2021/11/08 00:45:26;;;;;;;;;;;15.20;73.70;;;;;;4257240;27;20428;-66
2021/11/08 00:47:29;;;;;;;;;;;15.30;73.80;;;;;;4247529;27;19919;-66
2021/11/08 00:49:36;;;;;;;;;;;15.20;73.70;;;;;;4252316;27;19976;-66
2021/11/08 00:51:43;;;;;;;;;;;15.20;73.70;;;;;;4263509;27;19919;-65
2021/11/08 00:53:47;;;;;;;;;;;15.20;73.70;;;;;;4260019;27;19923;-66
2021/11/08 00:55:50;;;;;;;;;;;15.20;73.70;;;;;;4238511;27;20295;-65
2021/11/08 00:57:56;;;;;;;;;;;15.20;73.70;;;;;;4246896;27;19920;-65
2021/11/08 01:00:00;;;;;;;;;;;15.20;73.70;;;;;;4258811;27;19919;-66
2021/11/08 01:02:03;;;;;;;;;;;15.20;73.60;;;;;;4247909;27;20654;-66
2021/11/08 01:04:06;;;;;;;;;;;15.20;73.60;;;;;;4249115;27;19919;-65
2021/11/08 01:06:10;;;;;;;;;;;15.20;73.70;;;;;;4256687;27;19923;-66
2021/11/08 01:08:14;;;;;;;;;;;15.20;73.70;;;;;;4246565;27;19920;-65
2021/11/08 01:10:18;;;;;;;;;;;15.20;73.60;;;;;;4257947;27;20333;-65
2021/11/08 01:12:23;;;;;;;;;;;15.20;73.70;;;;;;4247902;27;19919;-65
2021/11/08 01:14:26;;;;;;;;;;;15.20;73.60;;;;;;4249287;27;20178;-65
2021/11/08 01:16:28;;;;;;;;;;;15.20;73.70;;;;;;4256856;27;19949;-64
2021/11/08 01:18:31;;;;;;;;;;;15.20;73.50;;;;;;4246845;27;19919;-65
2021/11/08 01:20:35;;;;;;;;;;;15.20;73.60;;;;;;4250863;27;20321;-65
2021/11/08 01:22:38;;;;;;;;;;;15.20;73.70;;;;;;4261920;27;20378;-65
2021/11/08 01:24:51;;;;;;;;;;;15.20;73.70;;;;;;4261270;27;19927;-65
2021/11/08 01:26:53;;;;;;;;;;;15.20;73.50;;;;;;4254277;27;19919;-66
2021/11/08 01:28:56;;;;;;;;;;;15.20;73.50;;;;;;4263713;27;20556;-66
2021/11/08 01:30:59;;;;;;;;;;;15.20;73.60;;;;;;4252200;27;19919;-65
2021/11/08 01:33:16;;;;;;;;;;;15.10;73.50;;;;;;4246906;27;19964;-65
2021/11/08 01:35:25;;;;;;;;;;;15.20;73.60;;;;;;4250418;27;19919;-65
2021/11/08 01:37:29;;;;;;;;;;;15.20;73.60;;;;;;4254219;27;19923;-66
2021/11/08 01:39:33;;;;;;;;;;;15.20;73.60;;;;;;4247019;27;19949;-66
2021/11/08 01:41:39;;;;;;;;;;;15.20;73.60;;;;;;4251249;27;19926;-66
2021/11/08 01:43:42;;;;;;;;;;;15.20;73.50;;;;;;4245051;27;19919;-68
2021/11/08 01:45:45;;;;;;;;;;;15.10;73.50;;;;;;4258257;27;19953;-66
2021/11/08 01:47:48;;;;;;;;;;;15.20;73.50;;;;;;4255901;27;20428;-66
2021/11/08 01:49:50;;;;;;;;;;;15.20;73.50;;;;;;4247533;27;19923;-66
2021/11/08 01:51:53;;;;;;;;;;;15.20;73.60;;;;;;4259371;27;20278;-66
2021/11/08 01:53:56;;;;;;;;;;;15.10;73.50;;;;;;4246072;27;19952;-66
2021/11/08 01:55:59;;;;;;;;;;;15.10;73.50;;;;;;4249999;27;19996;-66
2021/11/08 01:58:04;;;;;;;;;;;15.10;73.40;;;;;;4254790;27;19919;-65
2021/11/08 02:00:07;;;;;;;;;;;15.20;73.40;;;;;;4246163;28;19923;-66
2021/11/08 02:02:10;;;;;;;;;;;15.10;73.40;;;;;;4258928;27;19927;-66
2021/11/08 02:04:12;;;;;;;;;;;15.20;73.40;;;;;;4246499;28;20321;-68
2021/11/08 02:06:15;;;;;;;;;;;15.20;73.60;;;;;;4249411;27;20331;-66
2021/11/08 02:08:18;;;;;;;;;;;15.10;73.60;;;;;;4255403;27;19980;-66
2021/11/08 02:10:21;;;;;;;;;;;15.10;73.40;;;;;;4246224;28;19927;-67
2021/11/08 02:12:24;;;;;;;;;;;15.10;73.50;;;;;;4257514;27;19972;-66
2021/11/08 02:14:28;;;;;;;;;;;15.10;73.50;;;;;;4246922;27;20455;-67
2021/11/08 02:16:31;;;;;;;;;;;15.10;73.50;;;;;;4249103;27;19972;-67
2021/11/08 02:18:36;;;;;;;;;;;15.10;73.40;;;;;;4263403;27;19918;-69
2021/11/08 02:20:47;;;;;;;;;;;15.10;73.40;;;;;;4263435;27;20352;-66
2021/11/08 02:22:50;;;;;;;;;;;15.10;73.40;;;;;;4250472;27;19923;-66
2021/11/08 02:24:53;;;;;;;;;;;15.20;73.50;;;;;;4263334;27;20367;-66
2021/11/08 02:26:56;;;;;;;;;;;15.10;73.30;;;;;;4259728;27;20352;-66
2021/11/08 02:28:58;;;;;;;;;;;15.10;73.30;;;;;;4253549;27;19919;-67
2021/11/08 02:31:01;;;;;;;;;;;15.10;73.50;;;;;;4262086;27;19984;-65
2021/11/08 02:33:07;;;;;;;;;;;15.10;73.40;;;;;;4257097;27;19918;-66
2021/11/08 02:35:11;;;;;;;;;;;15.10;73.40;;;;;;4246625;27;19927;-66
2021/11/08 02:37:15;;;;;;;;;;;15.10;73.50;;;;;;4252639;27;19919;-67
2021/11/08 02:39:32;;;;;;;;;;;15.10;73.30;;;;;;4256526;27;19918;-65
2021/11/08 02:41:36;;;;;;;;;;;15.10;73.50;;;;;;4266039;27;19986;-65
2021/11/08 02:43:39;;;;;;;;;;;15.10;73.30;;;;;;4253158;27;19919;-67
2021/11/08 02:45:42;;;;;;;;;;;15.10;73.30;;;;;;4266220;27;19919;-66
2021/11/08 02:47:45;;;;;;;;;;;15.10;73.40;;;;;;4261987;27;19980;-65
2021/11/08 02:49:50;;;;;;;;;;;15.10;73.50;;;;;;4255610;27;19960;-66
2021/11/08 02:52:07;;;;;;;;;;;15.10;73.40;;;;;;4249070;27;19919;-67
2021/11/08 02:54:22;;;;;;;;;;;15.10;73.40;;;;;;4260610;27;19919;-65
2021/11/08 02:56:25;;;;;;;;;;;15.10;73.50;;;;;;4249072;27;20357;-65
2021/11/08 02:58:29;;;;;;;;;;;15.10;73.30;;;;;;4256633;27;19918;-66
2021/11/08 03:00:31;;;;;;;;;;;15.10;73.30;;;;;;4254440;27;19989;-65
2021/11/08 03:02:37;;;;;;;;;;;15.10;73.50;;;;;;4250686;27;19923;-67
2021/11/08 03:04:45;;;;;;;;;;;15.10;73.30;;;;;;4260580;27;19964;-66
2021/11/08 03:06:48;;;;;;;;;;;15.10;73.50;;;;;;4248986;27;19919;-66
2021/11/08 03:08:51;;;;;;;;;;;15.10;73.30;;;;;;4238251;27;20314;-66
2021/11/08 03:10:57;;;;;;;;;;;15.10;73.30;;;;;;4253019;27;19980;-66
2021/11/08 03:13:07;;;;;;;;;;;15.00;73.30;;;;;;4250110;27;19926;-66
2021/11/08 03:17:36;;;;;;;;;;;15.00;73.20;;;;;;4248672;27;20428;-66
2021/11/08 03:19:42;;;;;;;;;;;15.00;73.30;;;;;;4252880;27;19964;-66
2021/11/08 03:21:45;;;;;;;;;;;15.10;73.40;;;;;;4248521;27;20333;-65
2021/11/08 03:23:50;;;;;;;;;;;15.00;73.30;;;;;;4233196;27;19919;-66
2021/11/08 03:28:32;;;;;;;;;;;15.00;73.30;;;;;;4178753;28;19920;-66
2021/11/08 03:30:41;;;;;;;;;;;15.00;73.30;;;;;;4223564;27;19927;-65
2021/11/08 03:32:44;;;;;;;;;;;15.00;73.30;;;;;;4248393;27;19920;-65
2021/11/08 03:34:53;;;;;;;;;;;15.00;73.30;;;;;;4252446;27;20001;-66
2021/11/08 03:36:56;;;;;;;;;;;15.00;73.20;;;;;;4262212;27;19971;-66
2021/11/08 03:38:59;;;;;;;;;;;15.00;73.20;;;;;;4264341;27;19923;-66
2021/11/08 03:41:02;;;;;;;;;;;15.00;73.30;;;;;;4253971;27;20324;-65
2021/11/08 03:43:05;;;;;;;;;;;15.00;73.30;;;;;;4265993;27;19969;-70
2021/11/08 03:45:10;;;;;;;;;;;15.00;73.20;;;;;;4257039;27;19919;-66
2021/11/08 03:47:13;;;;;;;;;;;15.00;73.30;;;;;;4262123;27;19919;-67
2021/11/08 03:49:16;;;;;;;;;;;15.00;73.20;;;;;;4256339;27;19934;-66
2021/11/08 03:51:18;;;;;;;;;;;15.00;73.30;;;;;;4253578;27;20488;-66
2021/11/08 03:53:21;;;;;;;;;;;15.00;73.30;;;;;;4265556;27;19919;-65
2021/11/08 03:55:24;;;;;;;;;;;15.00;73.20;;;;;;4256914;27;19919;-65
2021/11/08 03:57:27;;;;;;;;;;;15.00;73.20;;;;;;4260220;27;19967;-66
2021/11/08 03:59:30;;;;;;;;;;;15.00;73.20;;;;;;4263437;27;19927;-65
2021/11/08 04:01:37;;;;;;;;;;;15.00;73.20;;;;;;4253246;27;20395;-67
2021/11/08 04:03:40;;;;;;;;;;;15.00;73.20;;;;;;4265039;27;19923;-66
2021/11/08 04:05:43;;;;;;;;;;;15.00;73.20;;;;;;4257363;27;19965;-66
2021/11/08 04:07:45;;;;;;;;;;;15.00;73.20;;;;;;4260215;27;19919;-66
2021/11/08 04:09:48;;;;;;;;;;;15.00;73.20;;;;;;4263413;27;20328;-67
2021/11/08 04:11:51;;;;;;;;;;;15.00;73.40;;;;;;4253319;27;19927;-66
2021/11/08 04:13:56;;;;;;;;;;;15.00;73.30;;;;;;4265059;27;20038;-65
2021/11/08 04:16:01;;;;;;;;;;;15.00;73.20;;;;;;4257563;27;19923;-66
2021/11/08 04:18:06;;;;;;;;;;;14.90;73.20;;;;;;4259250;27;20527;-66
2021/11/08 04:20:10;;;;;;;;;;;14.90;73.20;;;;;;4263333;27;19919;-65
2021/11/08 04:22:13;;;;;;;;;;;14.90;73.10;;;;;;4259258;27;19923;-66
2021/11/08 04:24:16;;;;;;;;;;;15.00;73.30;;;;;;4247643;27;19926;-66
2021/11/08 04:26:22;;;;;;;;;;;14.90;73.20;;;;;;4254293;27;19919;-66
2021/11/08 04:28:25;;;;;;;;;;;14.90;73.10;;;;;;4235001;27;19920;-66
2021/11/08 04:30:29;;;;;;;;;;;14.90;73.10;;;;;;4248886;27;19948;-66
2021/11/08 04:32:37;;;;;;;;;;;14.90;73.20;;;;;;4250610;27;19926;-65
2021/11/08 04:34:51;;;;;;;;;;;14.90;73.10;;;;;;4264411;27;19919;-66
2021/11/08 04:41:57;;;;;;;;;;;14.90;73.10;;;;;;4259954;27;19919;-66
2021/11/08 04:48:53;;;;;;;;;;;14.90;73.20;;;;;;4250024;27;19982;-65
2021/11/08 04:51:03;;;;;;;;;;;14.90;73.10;;;;;;4246989;27;20241;-66
2021/11/08 04:57:54;;;;;;;;;;;14.90;73.00;;;;;;4256455;27;20427;-66
2021/11/08 05:30:06;;;;;;;;;;;14.80;73.00;;;;;;4253256;27;19971;-66
2021/11/08 05:32:09;;;;;;;;;;;14.80;73.10;;;;;;4252492;27;20328;-65
2021/11/08 05:34:12;;;;;;;;;;;14.80;73.00;;;;;;4258571;27;19919;-64
2021/11/08 05:36:16;;;;;;;;;;;14.80;73.10;;;;;;4246663;27;19965;-67
2021/11/08 05:38:20;;;;;;;;;;;14.80;72.90;;;;;;4259315;27;19923;-65
2021/11/08 05:40:32;;;;;;;;;;;14.80;73.00;;;;;;4254422;27;19918;-66
2021/11/08 05:42:35;;;;;;;;;;;14.80;72.90;;;;;;4263489;27;19919;-66
2021/11/08 05:44:39;;;;;;;;;;;14.80;73.10;;;;;;4259144;27;19924;-66
2021/11/08 05:46:42;;;;;;;;;;;14.80;72.90;;;;;;4246498;27;19980;-65
2021/11/08 05:48:44;;;;;;;;;;;14.80;72.90;;;;;;4251455;27;19919;-65
2021/11/08 05:50:47;;;;;;;;;;;14.80;72.90;;;;;;4254821;27;19919;-66
2021/11/08 05:52:51;;;;;;;;;;;14.90;72.90;;;;;;4263642;27;19923;-66
2021/11/08 05:54:55;;;;;;;;;;;14.80;72.90;;;;;;4251150;27;19964;-67
2021/11/08 06:51:00;;;;;;;;;;;14.70;73.10;;;;;;4254649;27;19923;-68
2021/11/08 06:53:06;;;;;;;;;;;14.70;73.00;;;;;;4255852;27;19919;-66
2021/11/08 06:55:09;;;;;;;;;;;14.70;73.00;;;;;;4249864;27;19919;-68
2021/11/08 06:57:14;;;;;;;;;;;14.80;73.10;;;;;;4260794;27;19919;-67
2021/11/08 06:59:19;;;;;;;;;;;14.70;72.90;;;;;;4249184;27;19923;-65
2021/11/08 07:01:22;;;;;;;;;;;14.70;73.00;;;;;;4254751;27;19919;-70
2021/11/08 07:03:33;;;;;;;;;;;14.70;72.90;;;;;;4254075;27;19919;-65
2021/11/08 07:05:36;;;;;;;;;;;14.70;72.90;;;;;;4250134;27;19919;-65
2021/11/08 07:07:38;;;;;;;;;;;14.70;72.90;;;;;;4260442;27;20368;-66
2021/11/08 07:09:42;;;;;;;;;;;14.70;73.00;;;;;;4248846;27;19964;-69
2021/11/08 07:11:45;;;;;;;;;;;14.80;73.10;;;;;;4254953;27;19919;-65
2021/11/08 07:13:47;;;;;;;;;;;14.80;73.00;;;;;;4254701;27;20332;-69
2021/11/08 07:15:51;;;;;;;;;;;14.70;72.90;;;;;;4249446;27;19921;-69
2021/11/08 07:17:54;;;;;;;;;;;14.70;73.00;;;;;;4261374;27;19926;-68
2021/11/08 07:19:59;;;;;;;;;;;14.70;72.90;;;;;;4265521;27;19963;-67
2021/11/08 07:22:03;;;;;;;;;;;14.70;73.00;;;;;;4259475;27;19977;-67
2021/11/08 07:24:05;;;;;;;;;;;14.70;73.00;;;;;;4258270;27;19922;-66
2021/11/08 07:26:11;;;;;;;;;;;14.70;72.90;;;;;;4265301;27;19927;-66
2021/11/08 07:28:14;;;;;;;;;;;14.70;73.00;;;;;;4253840;27;20337;-68
2021/11/08 07:30:20;;;;;;;;;;;14.70;73.00;;;;;;4265606;27;19919;-68
2021/11/08 07:32:24;;;;;;;;;;;14.70;72.90;;;;;;4258291;27;20339;-66
2021/11/08 07:34:27;;;;;;;;;;;14.70;73.00;;;;;;4254886;27;19948;-67
2021/11/08 07:36:30;;;;;;;;;;;14.70;72.90;;;;;;4249139;27;20264;-67
2021/11/08 07:38:33;;;;;;;;;;;14.70;73.00;;;;;;4260124;27;20414;-68
2021/11/08 07:40:37;;;;;;;;;;;14.70;72.90;;;;;;4248394;27;19923;-69
2021/11/08 07:42:42;;;;;;;;;;;14.70;73.10;;;;;;4235105;27;19927;-67
2021/11/08 07:44:44;;;;;;;;;;;14.70;72.90;;;;;;4255368;27;19919;-68
2021/11/08 07:46:47;;;;;;;;;;;14.70;73.00;;;;;;4248602;27;19964;-70
2021/11/08 07:48:52;;;;;;;;;;;14.70;72.90;;;;;;4255056;27;20320;-68
2021/11/08 07:50:55;;;;;;;;;;;14.70;73.10;;;;;;4248293;27;19949;-68
2021/11/08 07:52:57;;;;;;;;;;;14.70;73.00;;;;;;4249711;27;19919;-65
2021/11/08 07:55:00;;;;;;;;;;;14.70;72.80;;;;;;4239652;27;19924;-68
2021/11/08 07:57:03;;;;;;;;;;;14.70;72.90;;;;;;4265880;27;20286;-71
2021/11/08 07:59:06;;;;;;;;;;;14.70;73.00;;;;;;4261222;27;20443;-70
2021/11/08 08:01:09;;;;;;;;;;;14.70;72.90;;;;;;4249138;27;19923;-70
2021/11/08 08:03:13;;;;;;;;;;;14.70;73.00;;;;;;4253208;27;19945;-68
2021/11/08 08:05:18;;;;;;;;;;;14.70;72.90;;;;;;4258058;27;19931;-70
2021/11/08 08:07:20;;;;;;;;;;;14.70;73.00;;;;;;4249649;27;19919;-67
2021/11/08 08:09:23;;;;;;;;;;;14.70;72.80;;;;;;4261952;27;19919;-71
2021/11/08 08:11:26;;;;;;;;;;;14.70;72.80;;;;;;4248441;27;19923;-73
2021/11/08 08:13:29;;;;;;;;;;;14.70;72.80;;;;;;4252180;27;19919;-67
2021/11/08 08:15:32;;;;;;;;;;;14.70;72.90;;;;;;4257218;27;19971;-66
2021/11/08 08:17:35;;;;;;;;;;;14.70;73.40;;;;;;4253394;27;19919;-65
2021/11/08 08:19:37;;;;;;;;;;;14.70;72.90;;;;;;4252520;27;19933;-71
2021/11/08 08:21:41;;;;;;;;;;;14.70;73.30;;;;;;4263899;27;19923;-68
2021/11/08 08:23:44;;;;;;;;;;;14.70;72.70;;;;;;4262200;27;19963;-69
2021/11/08 08:25:47;;;;;;;;;;;14.70;72.70;;;;;;4255741;27;19919;-72
2021/11/08 08:27:50;;;;;;;;;;;14.70;72.70;;;;;;4265600;27;19919;-66
2021/11/08 08:29:53;;;;;;;;;;;14.70;72.90;;;;;;4253786;27;19919;-66
2021/11/08 08:31:56;;;;;;;;;;;14.70;72.70;;;;;;4254037;27;19972;-66
2021/11/08 08:34:16;;;;;;;;;;;14.70;72.70;;;;;;4251627;27;19927;-68
2021/11/08 08:36:19;;;;;;;;;;;14.70;72.70;;;;;;4255923;27;20393;-65
2021/11/08 08:38:23;;;;;;;;;;;14.70;72.80;;;;;;4247421;27;19919;-69
2021/11/08 08:40:26;;;;;;;;;;;14.70;72.80;;;;;;4248783;27;19919;-69
2021/11/08 08:42:28;;;;;;;;;;;14.70;72.80;;;;;;4247290;27;19965;-69
2021/11/08 08:44:31;;;;;;;;;;;14.80;72.90;;;;;;4250749;27;19973;-68
2021/11/08 08:46:34;;;;;;;;;;;14.70;72.90;;;;;;4256309;27;20409;-69
2021/11/08 08:48:36;;;;;;;;;;;14.70;72.90;;;;;;4252676;27;20521;-67
2021/11/08 08:50:40;;;;;;;;;;;14.80;72.90;;;;;;4248649;27;19919;-69
2021/11/08 08:52:42;;;;;;;;;;;14.80;73.00;;;;;;4263311;27;20375;-67
2021/11/08 08:54:47;;;;;;;;;;;14.80;73.10;;;;;;4243021;27;19968;-64
2021/11/08 08:56:50;;;;;;;;;;;14.80;73.00;;;;;;4254194;27;19927;-66
2021/11/08 08:58:53;;;;;;;;;;;14.70;73.00;;;;;;4264293;27;19919;-66
2021/11/08 09:00:56;;;;;;;;;;;14.80;73.10;;;;;;4252699;27;19964;-66
2021/11/08 09:02:59;;;;;;;;;;;14.80;73.10;;;;;;4262665;27;19975;-69
2021/11/08 09:05:02;;;;;;;;;;;14.80;73.00;;;;;;4261845;27;19918;-65
2021/11/08 09:07:06;;;;;;;;;;;14.70;73.00;;;;;;4253438;27;19975;-69
2021/11/08 09:09:09;;;;;;;;;;;14.80;73.10;;;;;;4264150;27;20328;-69
2021/11/08 09:11:14;;;;;;;;;;;14.80;73.00;;;;;;4253430;27;19920;-69
2021/11/08 09:13:17;;;;;;;;;;;14.80;73.00;;;;;;4262118;27;19964;-66
2021/11/08 09:15:21;;;;;;;;;;;14.80;73.00;;;;;;4262206;27;19927;-68
2021/11/08 09:17:25;;;;;;;;;;;14.80;73.00;;;;;;4252750;27;20385;-69
2021/11/08 09:19:41;;;;;;;;;;;14.80;73.00;;;;;;4264021;27;20450;-66
2021/11/08 09:21:44;;;;;;;;;;;14.80;72.90;;;;;;4259659;27;19919;-65
2021/11/08 09:23:47;;;;;;;;;;;14.80;72.90;;;;;;4247474;27;19948;-67
2021/11/08 09:25:49;;;;;;;;;;;14.80;73.00;;;;;;4249105;27;20284;-67
2021/11/08 09:27:56;;;;;;;;;;;14.80;73.00;;;;;;4256430;27;19919;-65
2021/11/08 09:29:58;;;;;;;;;;;14.80;73.00;;;;;;4246640;27;19919;-68
2021/11/08 09:32:01;;;;;;;;;;;14.80;72.90;;;;;;4248136;27;19920;-68
2021/11/08 09:34:07;;;;;;;;;;;14.90;73.00;;;;;;4262790;27;19919;-66
2021/11/08 09:36:09;;;;;;;;;;;14.90;73.00;;;;;;4259080;27;20443;-65
2021/11/08 09:38:12;;;;;;;;;;;14.90;72.90;;;;;;4256347;27;19980;-69
2021/11/08 09:40:17;;;;;;;;;;;14.90;72.90;;;;;;4246230;27;20340;-66
2021/11/08 09:42:20;;;;;;;;;;;14.90;72.90;;;;;;4257273;27;20279;-65
2021/11/08 09:44:24;;;;;;;;;;;14.90;72.90;;;;;;4247384;27;19919;-70
2021/11/08 09:46:27;;;;;;;;;;;14.90;72.80;;;;;;4229133;27;19972;-66
2021/11/08 09:48:30;;;;;;;;;;;14.90;72.80;;;;;;4261169;27;19968;-66
2021/11/08 09:50:34;;;;;;;;;;;14.90;72.80;;;;;;4249913;27;19972;-69
2021/11/08 09:52:39;;;;;;;;;;;14.90;72.70;;;;;;4250505;27;20324;-69
2021/11/08 09:54:43;;;;;;;;;;;14.90;72.80;;;;;;4261885;27;20138;-67
2021/11/08 09:56:47;;;;;;;;;;;14.90;72.80;;;;;;4261032;27;19988;-64
2021/11/08 09:58:50;;;;;;;;;;;15.00;72.80;;;;;;4252673;27;19923;-68
2021/11/08 10:01:08;;;;;;;;;;;15.00;72.80;;;;;;4263696;27;20401;-69
2021/11/08 10:03:14;;;;;;;;;;;15.00;72.70;;;;;;4250351;27;20375;-68
2021/11/08 10:05:17;;;;;;;;;;;15.00;72.70;;;;;;4246438;28;19980;-68
2021/11/08 10:07:19;;;;;;;;;;;15.00;72.70;;;;;;4249982;27;19968;-65
2021/11/08 10:09:22;;;;;;;;;;;15.00;72.70;;;;;;4254822;27;20287;-66
2021/11/08 10:11:26;;;;;;;;;;;15.00;72.70;;;;;;4246221;28;19919;-69
2021/11/08 10:13:30;;;;;;;;;;;15.00;72.60;;;;;;4258151;27;20310;-66
2021/11/08 10:15:33;;;;;;;;;;;15.00;72.70;;;;;;4246345;27;19972;-66
2021/11/08 10:17:37;;;;;;;;;;;15.10;72.60;;;;;;4233359;28;19923;-69
2021/11/08 10:19:40;;;;;;;;;;;15.00;72.60;;;;;;4254577;27;19923;-65
2021/11/08 10:21:44;;;;;;;;;;;15.10;72.60;;;;;;4263655;27;20370;-67
2021/11/08 10:23:49;;;;;;;;;;;15.00;72.60;;;;;;4233023;28;19923;-69
2021/11/08 10:25:52;;;;;;;;;;;15.00;72.50;;;;;;4262783;27;19934;-69
2021/11/08 10:27:54;;;;;;;;;;;15.10;72.50;;;;;;4259636;27;19919;-69
2021/11/08 10:30:06;;;;;;;;;;;15.10;72.50;;;;;;4254794;27;19922;-66
2021/11/08 10:32:09;;;;;;;;;;;15.10;72.50;;;;;;4234455;28;19973;-66
2021/11/08 10:34:14;;;;;;;;;;;15.10;72.40;;;;;;4258094;27;19923;-65
2021/11/08 10:36:18;;;;;;;;;;;15.10;72.40;;;;;;4245703;28;19972;-68
2021/11/08 10:38:24;;;;;;;;;;;15.10;72.40;;;;;;4258246;27;20447;-68
2021/11/08 10:40:29;;;;;;;;;;;15.10;72.40;;;;;;4254298;27;20360;-66
2021/11/08 10:42:55;;;;;;;;;;;15.20;72.40;;;;;;4247417;27;19972;-66
2021/11/08 10:44:58;;;;;;;;;;;15.10;72.30;;;;;;4257375;27;19964;-68
2021/11/08 10:47:03;;;;;;;;;;;15.10;72.40;;;;;;4245925;28;19931;-65
2021/11/08 10:49:08;;;;;;;;;;;15.10;72.40;;;;;;4250452;27;19991;-67
2021/11/08 10:51:13;;;;;;;;;;;15.10;72.40;;;;;;4258112;27;19955;-68
2021/11/08 10:53:16;;;;;;;;;;;15.10;72.30;;;;;;4261029;27;19978;-68
2021/11/08 10:55:27;;;;;;;;;;;15.10;72.30;;;;;;4251200;27;19934;-68
2021/11/08 10:57:30;;;;;;;;;;;15.10;72.30;;;;;;4264093;27;19919;-66
2021/11/08 10:59:34;;;;;;;;;;;15.10;72.40;;;;;;4257818;27;20442;-66
2021/11/08 11:01:40;;;;;;;;;;;15.20;72.40;;;;;;4262077;27;19950;-65
2021/11/08 11:03:46;;;;;;;;;;;15.20;72.40;;;;;;4265194;27;19919;-68
2021/11/08 11:06:01;;;;;;;;;;;15.10;72.30;;;;;;4254942;27;19979;-72
2021/11/08 11:08:05;;;;;;;;;;;15.20;72.40;;;;;;4266559;27;19919;-70
2021/11/08 11:10:08;;;;;;;;;;;15.20;72.40;;;;;;4255587;27;19927;-66
2021/11/08 11:12:14;;;;;;;;;;;15.10;72.40;;;;;;4263653;27;19927;-65
2021/11/08 11:14:16;;;;;;;;;;;15.20;72.60;;;;;;4264035;27;19919;-69
2021/11/08 11:16:32;;;;;;;;;;;15.20;72.60;;;;;;4254551;27;20264;-65
2021/11/08 11:18:37;;;;;;;;;;;15.20;72.60;;;;;;4265991;27;19919;-66
2021/11/08 11:20:43;;;;;;;;;;;15.20;72.60;;;;;;4261306;27;19979;-67
2021/11/08 11:22:53;;;;;;;;;;;15.20;72.60;;;;;;4248924;27;19923;-66
2021/11/08 11:24:57;;;;;;;;;;;15.20;72.60;;;;;;4252593;27;20311;-68
2021/11/08 11:27:00;;;;;;;;;;;15.20;72.60;;;;;;4256750;27;19923;-69
2021/11/08 11:29:04;;;;;;;;;;;15.20;72.60;;;;;;4248734;27;19972;-67
2021/11/08 11:31:10;;;;;;;;;;;15.20;72.50;;;;;;4252530;27;19964;-67
2021/11/08 11:33:14;;;;;;;;;;;15.20;72.50;;;;;;4248553;27;19920;-65
2021/11/08 11:35:20;;;;;;;;;;;15.20;72.50;;;;;;4251862;27;20313;-66
2021/11/08 11:37:24;;;;;;;;;;;15.20;72.40;;;;;;4256556;27;19949;-63
2021/11/08 11:39:27;;;;;;;;;;;15.30;72.40;;;;;;4248226;27;19923;-65
2021/11/08 11:41:33;;;;;;;;;;;15.20;72.30;;;;;;4261208;27;20306;-65
2021/11/08 11:43:37;;;;;;;;;;;15.30;72.40;;;;;;4248260;27;19924;-67
2021/11/08 11:45:44;;;;;;;;;;;15.30;72.40;;;;;;4252567;27;19964;-67
2021/11/08 11:47:55;;;;;;;;;;;15.30;72.30;;;;;;4255705;27;19919;-70
2021/11/08 11:49:57;;;;;;;;;;;15.20;72.20;;;;;;4238595;27;19919;-67
2021/11/08 11:52:00;;;;;;;;;;;15.30;72.20;;;;;;4253773;27;19919;-67
2021/11/08 11:54:04;;;;;;;;;;;15.30;72.20;;;;;;4265296;27;19919;-67
2021/11/08 11:56:07;;;;;;;;;;;15.30;72.20;;;;;;4259790;27;19923;-66
2021/11/08 11:58:11;;;;;;;;;;;15.30;72.10;;;;;;4257995;27;19919;-67
2021/11/08 12:00:14;;;;;;;;;;;15.30;72.00;;;;;;4265117;27;19919;-69
2021/11/08 12:02:17;;;;;;;;;;;15.30;72.00;;;;;;4252894;27;19965;-69
2021/11/08 12:04:21;;;;;;;;;;;15.30;72.00;;;;;;4265272;27;20298;-65
2021/11/08 12:06:25;;;;;;;;;;;15.30;72.00;;;;;;4259986;27;19919;-69
2021/11/08 12:08:31;;;;;;;;;;;15.30;72.00;;;;;;4256788;27;19923;-69
2021/11/08 12:10:42;;;;;;;;;;;15.30;72.00;;;;;;4264390;27;19919;-66
2021/11/08 12:12:44;;;;;;;;;;;15.30;72.00;;;;;;4259010;27;19919;-67
2021/11/08 12:14:56;;;;;;;;;;;15.40;72.00;;;;;;4247540;27;19919;-69
2021/11/08 12:17:01;;;;;;;;;;;15.30;72.00;;;;;;4254409;27;19919;-69
2021/11/08 12:19:04;;;;;;;;;;;15.30;71.80;;;;;;4264854;27;19923;-70
2021/11/08 12:21:11;;;;;;;;;;;15.30;71.70;;;;;;4263323;27;19926;-65
2021/11/08 12:23:15;;;;;;;;;;;15.30;71.50;;;;;;4253139;27;19919;-69
2021/11/08 12:25:18;;;;;;;;;;;15.40;71.60;;;;;;4264954;27;20356;-67
2021/11/08 12:27:31;;;;;;;;;;;15.40;71.70;;;;;;4257339;27;19979;-68
2021/11/08 12:29:44;;;;;;;;;;;15.40;72.10;;;;;;4260730;27;19948;-68
2021/11/08 12:31:59;;;;;;;;;;;15.40;71.50;;;;;;4258330;27;19919;-66
2021/11/08 12:34:04;;;;;;;;;;;15.30;71.20;;;;;;4254841;27;19923;-69
2021/11/08 12:36:14;;;;;;;;;;;15.40;71.30;;;;;;4264682;27;19995;-66
2021/11/08 12:38:17;;;;;;;;;;;15.40;71.30;;;;;;4234486;27;20426;-69
2021/11/08 12:40:21;;;;;;;;;;;15.40;71.50;;;;;;4264141;27;19918;-66
2021/11/08 12:42:24;;;;;;;;;;;15.40;71.50;;;;;;4261224;27;19919;-68
2021/11/08 12:44:33;;;;;;;;;;;15.40;71.50;;;;;;4255112;27;20398;-69
2021/11/08 12:46:38;;;;;;;;;;;15.40;71.40;;;;;;4264111;27;19949;-67
2021/11/08 12:48:42;;;;;;;;;;;15.40;71.20;;;;;;4257154;27;19919;-67
2021/11/08 12:50:46;;;;;;;;;;;15.40;71.40;;;;;;4263077;27;20378;-65
2021/11/08 12:52:49;;;;;;;;;;;15.40;71.40;;;;;;4259719;27;19920;-68
2021/11/08 12:54:53;;;;;;;;;;;15.40;71.30;;;;;;4256246;27;20441;-68
2021/11/08 12:57:04;;;;;;;;;;;15.40;71.10;;;;;;4247461;27;19919;-66
2021/11/08 12:59:14;;;;;;;;;;;15.40;70.90;;;;;;4259640;27;19922;-69
2021/11/08 13:01:21;;;;;;;;;;;15.40;70.90;;;;;;4247285;27;19923;-66
2021/11/08 13:03:30;;;;;;;;;;;15.40;71.00;;;;;;4252708;27;20316;-66
2021/11/08 13:05:38;;;;;;;;;;;15.40;71.10;;;;;;4253086;27;19920;-67
2021/11/08 13:07:42;;;;;;;;;;;15.40;70.80;;;;;;4248400;27;19964;-66
2021/11/08 13:09:45;;;;;;;;;;;15.40;71.10;;;;;;4258459;27;19965;-65
2021/11/08 13:11:49;;;;;;;;;;;15.30;71.10;;;;;;4246943;27;19984;-66
2021/11/08 13:13:56;;;;;;;;;;;15.30;71.10;;;;;;4253295;27;20584;-67
2021/11/08 13:16:01;;;;;;;;;;;15.30;71.20;;;;;;4251883;27;20460;-66
2021/11/08 13:18:05;;;;;;;;;;;15.30;71.50;;;;;;4247821;27;20395;-68
2021/11/08 13:20:08;;;;;;;;;;;15.30;71.10;;;;;;4252495;27;20438;-67
2021/11/08 13:22:24;;;;;;;;;;;15.30;71.40;;;;;;4264605;27;20410;-68
2021/11/08 13:24:30;;;;;;;;;;;15.30;71.40;;;;;;4255785;27;20363;-66
2021/11/08 13:26:33;;;;;;;;;;;15.30;71.70;;;;;;4247295;27;20432;-68
2021/11/08 13:28:37;;;;;;;;;;;15.30;71.40;;;;;;4248370;27;19922;-66
2021/11/08 13:30:42;;;;;;;;;;;15.40;71.50;;;;;;4258448;27;19920;-68
2021/11/08 13:32:44;;;;;;;;;;;15.40;71.40;;;;;;4246689;27;20442;-68
2021/11/08 13:34:47;;;;;;;;;;;15.30;71.40;;;;;;4250794;27;19941;-69
2021/11/08 13:36:50;;;;;;;;;;;15.40;71.40;;;;;;4259823;27;19923;-69
2021/11/08 13:38:55;;;;;;;;;;;15.40;71.40;;;;;;4262189;27;19940;-68
2021/11/08 13:41:02;;;;;;;;;;;15.40;71.30;;;;;;4251995;27;19923;-67
2021/11/08 13:43:06;;;;;;;;;;;15.40;71.30;;;;;;4263916;27;19922;-66
2021/11/08 13:45:09;;;;;;;;;;;15.40;71.40;;;;;;4254659;27;19919;-69
2021/11/08 13:47:12;;;;;;;;;;;15.40;71.20;;;;;;4259739;27;19952;-68
2021/11/08 13:49:16;;;;;;;;;;;15.40;71.30;;;;;;4255353;27;20317;-65
2021/11/08 13:51:21;;;;;;;;;;;15.40;71.20;;;;;;4251611;27;19919;-69
2021/11/08 13:53:25;;;;;;;;;;;15.40;71.20;;;;;;4263653;27;19934;-70